createdAt,value
2022-09-17T00:01:05.496Z,25.30
2022-09-17T00:03:34.375Z,25.30
2022-09-17T00:06:09.802Z,25.30
2022-09-17T00:08:37.580Z,25.30
2022-09-17T00:11:29.853Z,25.20
2022-09-17T00:14:00.126Z,25.20
2022-09-17T00:16:31.376Z,25.20
2022-09-17T00:18:59.430Z,25.20
2022-09-17T00:21:26.769Z,25.20
2022-09-17T00:23:56.099Z,25.20
2022-09-17T00:26:23.248Z,25.20
2022-09-17T00:28:52.928Z,25.20
2022-09-17T00:31:20.343Z,25.10
2022-09-17T00:33:47.471Z,25.10
2022-09-17T00:36:14.288Z,25.00
2022-09-17T00:38:41.088Z,25.00
2022-09-17T00:41:08.400Z,24.90
2022-09-17T00:43:39.810Z,24.90
2022-09-17T00:46:22.850Z,24.90
2022-09-17T00:48:50.956Z,24.80
2022-09-17T00:51:22.816Z,24.70
2022-09-17T00:53:49.656Z,24.40
2022-09-17T00:56:19.914Z,24.30
2022-09-17T00:58:47.057Z,24.30
2022-09-17T01:01:14.382Z,24.30
2022-09-17T01:03:41.942Z,24.20
2022-09-17T01:06:50.036Z,24.10
2022-09-17T01:09:19.643Z,24.10
2022-09-17T01:11:55.343Z,24.00
2022-09-17T01:14:42.869Z,24.00
2022-09-17T01:17:39.514Z,24.00
2022-09-17T01:20:16.080Z,23.70
2022-09-17T01:22:54.873Z,23.80
2022-09-17T01:25:42.444Z,23.70
2022-09-17T01:28:29.345Z,23.60
2022-09-17T01:31:16.794Z,23.60
2022-09-17T01:33:57.451Z,23.50
2022-09-17T01:36:32.942Z,23.40
2022-09-17T01:39:35.384Z,23.40
2022-09-17T01:42:41.788Z,23.20
2022-09-17T01:45:22.452Z,23.20
2022-09-17T01:48:09.600Z,23.10
2022-09-17T01:51:14.799Z,23.00
2022-09-17T01:54:04.817Z,22.90
2022-09-17T01:56:38.877Z,22.90
2022-09-17T01:59:22.616Z,22.70
2022-09-17T02:01:53.721Z,22.70
2022-09-17T02:04:26.389Z,22.50
2022-09-17T02:07:20.855Z,22.40
2022-09-17T02:09:53.729Z,22.30
2022-09-17T02:12:28.848Z,22.10
2022-09-17T02:14:59.062Z,22.10
2022-09-17T02:17:35.003Z,22.10
2022-09-17T02:20:02.344Z,21.90
2022-09-17T02:22:52.599Z,21.90
2022-09-17T02:25:57.498Z,21.80
2022-09-17T02:28:31.167Z,21.70
2022-09-17T02:30:57.903Z,21.70
2022-09-17T02:33:26.344Z,21.60
2022-09-17T02:35:53.088Z,21.60
2022-09-17T02:38:25.661Z,21.50
2022-09-17T02:41:19.790Z,21.50
2022-09-17T02:44:03.705Z,21.50
2022-09-17T02:46:30.343Z,21.50
2022-09-17T02:49:25.355Z,21.50
2022-09-17T02:52:07.323Z,21.40
2022-09-17T02:54:45.975Z,21.40
2022-09-17T02:57:38.910Z,21.30
2022-09-17T03:00:14.675Z,21.20
2022-09-17T03:02:50.075Z,21.10
2022-09-17T03:05:21.527Z,21.10
2022-09-17T03:07:48.247Z,21.10
2022-09-17T03:10:16.039Z,21.10
2022-09-17T03:12:43.296Z,21.00
2022-09-17T03:15:10.417Z,21.10
2022-09-17T03:17:37.761Z,21.10
2022-09-17T03:20:05.254Z,21.10
2022-09-17T03:22:32.128Z,21.00
2022-09-17T03:24:58.784Z,21.00
2022-09-17T03:27:25.593Z,21.10
2022-09-17T03:29:52.283Z,21.00
2022-09-17T03:32:19.049Z,20.90
2022-09-17T03:34:46.998Z,20.90
2022-09-17T03:37:14.067Z,20.80
2022-09-17T03:39:40.711Z,20.80
2022-09-17T03:42:07.484Z,20.90
2022-09-17T03:44:34.228Z,20.90
2022-09-17T03:47:01.046Z,20.90
2022-09-17T03:49:27.745Z,20.90
2022-09-17T03:51:54.355Z,20.90
2022-09-17T03:54:21.012Z,20.90
2022-09-17T03:56:47.744Z,20.90
2022-09-17T03:59:14.618Z,20.80
2022-09-17T04:01:41.579Z,20.60
2022-09-17T04:04:08.610Z,20.60
2022-09-17T04:06:35.681Z,20.60
2022-09-17T04:09:04.810Z,20.50
2022-09-17T04:11:31.664Z,20.50
2022-09-17T04:13:58.950Z,20.40
2022-09-17T04:16:25.793Z,20.30
2022-09-17T04:18:52.491Z,20.20
2022-09-17T04:21:19.228Z,20.20
2022-09-17T04:23:45.878Z,20.30
2022-09-17T04:26:12.661Z,20.40
2022-09-17T04:28:39.416Z,20.30
2022-09-17T04:31:06.201Z,20.20
2022-09-17T04:33:32.984Z,20.10
2022-09-17T04:35:59.679Z,20.00
2022-09-17T04:38:26.427Z,20.20
2022-09-17T04:40:54.494Z,20.20
2022-09-17T04:43:21.159Z,20.10
2022-09-17T04:45:49.285Z,20.20
2022-09-17T04:48:16.077Z,20.20
2022-09-17T04:50:42.885Z,20.10
2022-09-17T04:53:09.943Z,20.20
2022-09-17T04:55:36.600Z,20.10
2022-09-17T04:58:04.429Z,20.10
2022-09-17T05:00:31.148Z,20.10
2022-09-17T05:02:57.852Z,20.10
2022-09-17T05:05:24.657Z,20.10
2022-09-17T05:07:51.328Z,20.00
2022-09-17T05:10:20.052Z,20.10
2022-09-17T05:12:51.936Z,20.00
2022-09-17T05:15:19.171Z,20.00
2022-09-17T05:17:46.586Z,20.00
2022-09-17T05:20:14.460Z,20.00
2022-09-17T05:22:43.383Z,19.80
2022-09-17T05:25:10.684Z,20.00
2022-09-17T05:27:39.126Z,19.90
2022-09-17T05:30:06.773Z,19.90
2022-09-17T05:32:33.822Z,19.90
2022-09-17T05:35:04.755Z,19.90
2022-09-17T05:37:32.231Z,20.00
2022-09-17T05:39:58.992Z,19.90
2022-09-17T05:42:25.750Z,19.90
2022-09-17T05:44:52.499Z,19.60
2022-09-17T05:47:19.209Z,19.60
2022-09-17T05:49:45.838Z,19.50
2022-09-17T05:52:12.565Z,19.30
2022-09-17T05:54:39.296Z,19.40
2022-09-17T05:57:06.287Z,19.50
2022-09-17T05:59:35.188Z,19.60
2022-09-17T06:02:02.217Z,19.80
2022-09-17T06:04:32.772Z,19.80
2022-09-17T06:07:05.379Z,19.90
2022-09-17T06:09:32.099Z,20.00
2022-09-17T06:11:58.769Z,20.20
2022-09-17T06:14:25.470Z,20.40
2022-09-17T06:16:52.249Z,20.60
2022-09-17T06:19:18.999Z,20.50
2022-09-17T06:21:47.220Z,20.50
2022-09-17T06:24:13.928Z,20.40
2022-09-17T06:26:40.552Z,20.00
2022-09-17T06:29:07.436Z,20.00
2022-09-17T06:31:34.245Z,20.20
2022-09-17T06:34:01.821Z,20.20
2022-09-17T06:36:28.569Z,19.90
2022-09-17T06:38:55.268Z,19.80
2022-09-17T06:41:22.054Z,19.90
2022-09-17T06:43:48.789Z,19.70
2022-09-17T06:46:15.583Z,19.50
2022-09-17T06:48:42.389Z,19.50
2022-09-17T06:51:10.946Z,19.50
2022-09-17T06:53:40.383Z,19.40
2022-09-17T06:56:08.664Z,19.40
2022-09-17T06:58:43.854Z,19.50
2022-09-17T07:01:12.424Z,19.60
2022-09-17T07:03:42.782Z,19.70
2022-09-17T07:06:10.784Z,19.90
2022-09-17T07:08:38.049Z,20.10
2022-09-17T07:11:04.936Z,20.00
2022-09-17T07:13:31.993Z,19.90
2022-09-17T07:16:00.814Z,19.90
2022-09-17T07:18:27.907Z,19.90
2022-09-17T07:20:56.096Z,19.90
2022-09-17T07:23:24.619Z,20.20
2022-09-17T07:25:55.848Z,20.40
2022-09-17T07:28:23.296Z,20.80
2022-09-17T07:30:51.336Z,21.00
2022-09-17T07:33:23.130Z,21.10
2022-09-17T07:36:03.598Z,21.50
2022-09-17T07:38:31.233Z,21.90
2022-09-17T07:41:06.146Z,22.10
2022-09-17T07:43:36.374Z,22.30
2022-09-17T07:46:04.404Z,22.50
2022-09-17T07:48:31.643Z,22.50
2022-09-17T07:50:58.832Z,22.50
2022-09-17T07:53:27.029Z,22.40
2022-09-17T07:55:55.303Z,22.40
2022-09-17T07:58:23.580Z,22.30
2022-09-17T08:00:50.893Z,22.30
2022-09-17T08:03:17.647Z,22.40
2022-09-17T08:05:44.454Z,22.40
2022-09-17T08:08:11.284Z,22.40
2022-09-17T08:10:37.975Z,22.40
2022-09-17T08:13:04.683Z,22.40
2022-09-17T08:15:31.347Z,22.50
2022-09-17T08:17:58.048Z,22.50
2022-09-17T08:20:26.179Z,22.30
2022-09-17T08:22:59.372Z,22.40
2022-09-17T08:25:26.182Z,22.20
2022-09-17T08:27:56.720Z,22.20
2022-09-17T08:30:23.992Z,22.20
2022-09-17T08:32:50.781Z,21.90
2022-09-17T08:35:17.810Z,21.80
2022-09-17T08:37:44.548Z,21.80
2022-09-17T08:40:20.958Z,21.80
2022-09-17T08:43:02.416Z,21.80
2022-09-17T08:45:30.046Z,21.50
2022-09-17T08:48:05.051Z,21.40
2022-09-17T08:50:33.976Z,21.30
2022-09-17T08:53:21.220Z,21.10
2022-09-17T08:55:50.919Z,21.10
2022-09-17T08:58:54.620Z,20.90
2022-09-17T09:01:31.500Z,20.80
2022-09-17T09:04:03.116Z,20.80
2022-09-17T09:06:37.795Z,20.80
2022-09-17T09:09:12.212Z,20.80
2022-09-17T09:11:40.457Z,20.80
2022-09-17T09:14:17.702Z,20.70
2022-09-17T09:16:47.813Z,20.30
2022-09-17T09:19:29.096Z,20.40
2022-09-17T09:22:14.699Z,20.30
2022-09-17T09:24:42.580Z,20.30
2022-09-17T09:27:38.725Z,20.40
2022-09-17T09:30:05.663Z,20.60
2022-09-17T09:32:51.615Z,20.80
2022-09-17T09:35:23.396Z,20.50
2022-09-17T09:38:02.361Z,20.30
2022-09-17T09:40:34.851Z,20.50
2022-09-17T09:43:11.793Z,20.40
2022-09-17T09:45:55.060Z,20.50
2022-09-17T09:48:47.030Z,20.80
2022-09-17T09:51:41.304Z,20.80
2022-09-17T09:54:40.979Z,20.90
2022-09-17T09:57:15.239Z,21.10
2022-09-17T09:59:41.932Z,21.10
2022-09-17T10:02:09.264Z,20.90
2022-09-17T10:04:36.020Z,20.60
2022-09-17T10:07:08.573Z,20.70
2022-09-17T10:09:37.821Z,20.80
2022-09-17T10:12:15.950Z,21.00
2022-09-17T10:14:45.427Z,21.00
2022-09-17T10:17:25.010Z,21.00
2022-09-17T10:20:08.312Z,21.20
2022-09-17T10:22:46.108Z,21.30
2022-09-17T10:25:32.298Z,21.30
2022-09-17T10:28:02.629Z,21.70
2022-09-17T10:30:29.737Z,22.00
2022-09-17T10:33:27.516Z,22.20
2022-09-17T10:36:07.776Z,22.10
2022-09-17T10:38:39.919Z,22.10
2022-09-17T10:41:16.824Z,22.30
2022-09-17T10:43:44.450Z,22.50
2022-09-17T10:46:15.958Z,22.60
2022-09-17T10:49:11.379Z,22.60
2022-09-17T10:51:38.917Z,22.40
2022-09-17T10:54:28.791Z,22.80
2022-09-17T10:56:58.853Z,23.10
2022-09-17T10:59:59.059Z,23.60
2022-09-17T11:03:00.814Z,24.10
2022-09-17T11:05:36.269Z,24.50
2022-09-17T11:08:02.809Z,24.70
2022-09-17T11:10:58.137Z,24.70
2022-09-17T11:13:57.008Z,24.70
2022-09-17T11:16:32.825Z,25.30
2022-09-17T11:19:14.521Z,25.80
2022-09-17T11:21:41.154Z,26.20
2022-09-17T11:24:19.420Z,26.60
2022-09-17T11:27:10.873Z,26.90
2022-09-17T11:29:55.304Z,27.10
2022-09-17T11:32:46.705Z,27.50
2022-09-17T11:35:21.834Z,27.90
2022-09-17T11:37:59.776Z,28.40
2022-09-17T11:40:48.467Z,28.10
2022-09-17T11:43:22.392Z,28.40
2022-09-17T11:46:05.084Z,27.90
2022-09-17T11:48:42.496Z,28.30
2022-09-17T11:51:22.552Z,28.80
2022-09-17T11:54:15.909Z,28.50
2022-09-17T11:56:45.873Z,28.10
2022-09-17T11:59:33.469Z,27.80
2022-09-17T12:02:15.398Z,28.20
2022-09-17T12:05:02.197Z,29.40
2022-09-17T12:07:48.651Z,30.40
2022-09-17T12:11:00.977Z,30.90
2022-09-17T12:13:34.729Z,32.20
2022-09-17T12:16:19.150Z,33.10
2022-09-17T12:19:01.227Z,33.50
2022-09-17T12:21:59.814Z,34.10
2022-09-17T12:24:29.092Z,35.40
2022-09-17T12:27:39.244Z,35.80
2022-09-17T12:30:22.600Z,37.30
2022-09-17T12:33:13.865Z,37.80
2022-09-17T12:36:14.651Z,38.70
2022-09-17T12:39:15.270Z,38.70
2022-09-17T12:42:19.550Z,39.20
2022-09-17T12:45:21.705Z,38.70
2022-09-17T12:48:15.876Z,39.50
2022-09-17T12:51:10.912Z,39.30
2022-09-17T12:54:09.010Z,38.80
2022-09-17T12:57:11.880Z,39.40
2022-09-17T12:59:53.495Z,39.40
2022-09-17T13:02:28.702Z,38.50
2022-09-17T13:05:10.590Z,38.60
2022-09-17T13:07:47.928Z,38.40
2022-09-17T13:10:40.897Z,38.40
2022-09-17T13:13:34.689Z,37.90
2022-09-17T13:16:23.851Z,37.90
2022-09-17T13:19:17.038Z,37.80
2022-09-17T13:21:51.455Z,38.00
2022-09-17T13:24:21.540Z,38.40
2022-09-17T13:26:48.859Z,39.30
2022-09-17T13:29:53.797Z,39.30
2022-09-17T13:32:32.550Z,39.20
2022-09-17T13:35:17.041Z,38.80
2022-09-17T13:37:52.825Z,39.10
2022-09-17T13:40:34.295Z,38.30
2022-09-17T13:43:04.081Z,38.10
2022-09-17T13:45:33.715Z,38.40
2022-09-17T13:48:08.251Z,36.50
2022-09-17T13:50:44.842Z,33.60
2022-09-17T13:53:14.503Z,31.70
2022-09-17T13:55:45.131Z,30.20
2022-09-17T13:58:20.929Z,28.80
2022-09-17T14:00:55.463Z,27.20
2022-09-17T14:03:31.173Z,26.70
2022-09-17T14:06:11.045Z,26.10
2022-09-17T14:09:06.791Z,26.00
2022-09-17T14:11:33.748Z,25.90
2022-09-17T14:14:03.212Z,25.80
2022-09-17T14:16:36.903Z,25.40
2022-09-17T14:19:15.935Z,25.20
2022-09-17T14:21:46.340Z,24.70
2022-09-17T14:24:36.147Z,24.70
2022-09-17T14:27:32.831Z,24.50
2022-09-17T14:30:21.871Z,24.60
2022-09-17T14:32:54.257Z,24.70
2022-09-17T14:35:29.003Z,24.70
2022-09-17T14:38:02.852Z,24.90
2022-09-17T14:40:34.236Z,24.90
2022-09-17T14:43:03.032Z,24.90
2022-09-17T14:45:33.569Z,24.90
2022-09-17T14:48:32.519Z,24.90
2022-09-17T14:51:18.437Z,24.90
2022-09-17T14:53:46.565Z,24.80
2022-09-17T14:56:16.528Z,24.70
2022-09-17T14:58:54.702Z,24.70
2022-09-17T15:01:27.477Z,24.70
2022-09-17T15:04:12.577Z,24.50
2022-09-17T15:06:43.623Z,24.50
2022-09-17T15:09:18.657Z,24.60
2022-09-17T15:11:50.073Z,24.70
2022-09-17T15:14:21.043Z,24.70
2022-09-17T15:16:49.984Z,24.60
2022-09-17T15:19:25.808Z,24.50
2022-09-17T15:21:55.088Z,24.40
2022-09-17T15:24:40.047Z,24.60
2022-09-17T15:27:27.282Z,24.50
2022-09-17T15:30:09.340Z,24.60
2022-09-17T15:32:37.764Z,25.20
2022-09-17T15:35:13.244Z,28.10
2022-09-17T15:38:05.706Z,31.10
2022-09-17T15:40:37.287Z,33.50
2022-09-17T15:43:34.625Z,35.30
2022-09-17T15:46:27.499Z,36.70
2022-09-17T15:48:55.381Z,37.50
2022-09-17T15:51:31.355Z,37.70
2022-09-17T15:54:04.937Z,37.90
2022-09-17T15:56:37.331Z,38.10
2022-09-17T15:59:31.065Z,38.20
2022-09-17T16:02:01.342Z,38.10
2022-09-17T16:04:33.386Z,37.80
2022-09-17T16:07:12.464Z,37.40
2022-09-17T16:09:42.407Z,37.00
2022-09-17T16:12:13.343Z,36.50
2022-09-17T16:14:45.570Z,34.70
2022-09-17T16:17:42.650Z,32.20
2022-09-17T16:20:23.389Z,29.90
2022-09-17T16:22:51.777Z,28.20
2022-09-17T16:25:24.497Z,27.10
2022-09-17T16:27:55.899Z,26.30
2022-09-17T16:30:24.223Z,25.70
2022-09-17T16:32:51.516Z,25.30
2022-09-17T16:35:21.022Z,24.90
2022-09-17T16:37:52.156Z,24.80
2022-09-17T16:40:19.925Z,24.60
2022-09-17T16:42:46.867Z,24.30
2022-09-17T16:45:14.129Z,24.10
2022-09-17T16:47:42.297Z,24.00
2022-09-17T16:50:14.930Z,23.90
2022-09-17T16:52:42.031Z,23.90
2022-09-17T16:55:09.479Z,23.80
2022-09-17T16:57:36.179Z,23.60
2022-09-17T17:00:04.193Z,23.50
2022-09-17T17:02:30.905Z,23.50
2022-09-17T17:04:57.899Z,23.50
2022-09-17T17:07:25.209Z,23.50
2022-09-17T17:09:51.970Z,23.40
2022-09-17T17:12:20.511Z,23.30
2022-09-17T17:14:50.043Z,23.10
2022-09-17T17:17:17.919Z,23.10
2022-09-17T17:19:46.504Z,22.90
2022-09-17T17:22:14.148Z,22.90
2022-09-17T17:24:40.980Z,22.70
2022-09-17T17:27:10.564Z,22.60
2022-09-17T17:29:37.299Z,22.60
2022-09-17T17:32:05.006Z,22.60
2022-09-17T17:34:32.068Z,22.50
2022-09-17T17:36:59.249Z,22.40
2022-09-17T17:39:25.946Z,22.40
2022-09-17T17:41:54.523Z,22.30
2022-09-17T17:44:21.316Z,22.20
2022-09-17T17:46:48.478Z,22.20
2022-09-17T17:49:15.209Z,22.00
2022-09-17T17:51:42.062Z,21.90
2022-09-17T17:54:08.857Z,21.90
2022-09-17T17:56:35.614Z,21.90
2022-09-17T17:59:02.287Z,21.90
2022-09-17T18:01:30.604Z,21.90
2022-09-17T18:04:03.037Z,22.00
2022-09-17T18:06:30.451Z,22.00
2022-09-17T18:08:57.743Z,22.00
2022-09-17T18:11:25.616Z,22.00
2022-09-17T18:13:54.917Z,21.90
2022-09-17T18:16:22.786Z,21.80
2022-09-17T18:18:50.529Z,21.70
2022-09-17T18:21:20.043Z,21.70
2022-09-17T18:23:47.892Z,21.60
2022-09-17T18:26:26.329Z,21.70
2022-09-17T18:28:53.550Z,21.70
2022-09-17T18:31:25.788Z,21.70
2022-09-17T18:34:04.107Z,21.60
2022-09-17T18:36:33.082Z,21.70
2022-09-17T18:39:29.972Z,21.70
2022-09-17T18:41:48.581Z,21.60
2022-09-17T18:44:15.764Z,21.60
2022-09-17T18:46:42.728Z,21.60
2022-09-17T18:49:09.695Z,21.60
2022-09-17T18:51:37.819Z,21.70
2022-09-17T18:54:04.500Z,21.70
2022-09-17T18:56:35.180Z,21.70
2022-09-17T18:59:07.160Z,21.70
2022-09-17T19:01:34.923Z,21.70
2022-09-17T19:04:01.952Z,21.70
2022-09-17T19:06:30.408Z,21.70
2022-09-17T19:09:00.608Z,21.60
2022-09-17T19:11:27.488Z,21.60
2022-09-17T19:13:54.272Z,21.60
2022-09-17T19:16:21.098Z,21.60
2022-09-17T19:18:48.012Z,21.60
2022-09-17T19:21:20.513Z,21.60
2022-09-17T19:23:49.659Z,21.60
2022-09-17T19:26:18.883Z,21.60
2022-09-17T19:28:46.026Z,21.50
2022-09-17T19:31:17.019Z,21.50
2022-09-17T19:33:44.661Z,21.50
2022-09-17T19:36:13.802Z,21.40
2022-09-17T19:38:40.945Z,21.40
2022-09-17T19:41:12.302Z,21.30
2022-09-17T19:43:39.610Z,21.40
2022-09-17T19:46:16.065Z,21.30
2022-09-17T19:48:51.600Z,21.30
2022-09-17T19:51:18.762Z,21.30
2022-09-17T19:53:45.963Z,21.30
2022-09-17T19:56:21.453Z,21.20
2022-09-17T19:58:48.545Z,21.10
2022-09-17T20:01:16.133Z,21.10
2022-09-17T20:03:45.090Z,21.10
2022-09-17T20:06:14.238Z,21.10
2022-09-17T20:08:46.994Z,21.10
2022-09-17T20:11:15.004Z,21.10
2022-09-17T20:13:41.949Z,21.10
2022-09-17T20:16:14.299Z,21.00
2022-09-17T20:18:41.665Z,21.00
2022-09-17T20:21:12.929Z,21.00
2022-09-17T20:23:39.970Z,21.00
2022-09-17T20:26:07.055Z,20.90
2022-09-17T20:28:34.703Z,20.90
2022-09-17T20:31:03.347Z,20.90
2022-09-17T20:33:30.286Z,21.00
2022-09-17T20:36:17.703Z,20.80
2022-09-17T20:41:32.119Z,20.70
2022-09-17T20:43:58.868Z,20.70
2022-09-17T20:46:29.302Z,20.70
2022-09-17T20:48:58.175Z,20.60
2022-09-17T20:51:27.381Z,20.60
2022-09-17T20:53:54.959Z,20.60
2022-09-17T20:56:24.495Z,20.60
2022-09-17T20:59:02.773Z,20.60
2022-09-17T21:01:34.400Z,20.50
2022-09-17T21:04:02.141Z,20.40
2022-09-17T21:06:31.871Z,20.40
2022-09-17T21:09:00.110Z,20.40
2022-09-17T21:11:27.911Z,20.40
2022-09-17T21:13:54.784Z,20.40
2022-09-17T21:16:21.792Z,20.40
2022-09-17T21:18:48.948Z,20.40
2022-09-17T21:21:17.809Z,20.40
2022-09-17T21:23:44.629Z,20.30
2022-09-17T21:26:20.591Z,20.30
2022-09-17T21:28:49.347Z,20.30
2022-09-17T21:31:19.827Z,20.20
2022-09-17T21:33:48.221Z,20.20
2022-09-17T21:36:17.546Z,20.10
2022-09-17T21:38:44.973Z,20.20
2022-09-17T21:41:14.147Z,20.20
2022-09-17T21:43:42.657Z,20.10
2022-09-17T21:46:14.825Z,20.00
2022-09-17T21:48:47.222Z,20.00
2022-09-17T21:51:23.588Z,20.00
2022-09-17T21:53:52.513Z,20.00
2022-09-17T21:56:20.619Z,19.90
2022-09-17T21:58:51.883Z,20.00
2022-09-17T22:01:21.680Z,19.90
2022-09-17T22:03:49.358Z,20.00
2022-09-17T22:06:19.468Z,19.90
2022-09-17T22:08:47.332Z,19.90
2022-09-17T22:11:19.003Z,19.80
2022-09-17T22:14:08.926Z,19.90
2022-09-17T22:16:38.139Z,19.90
2022-09-17T22:19:05.916Z,19.90
2022-09-17T22:21:46.008Z,19.90
2022-09-17T22:24:13.753Z,19.80
2022-09-17T22:26:43.609Z,19.80
2022-09-17T22:29:16.552Z,19.80
2022-09-17T22:31:44.314Z,19.80
2022-09-17T22:34:14.225Z,19.90
2022-09-17T22:36:41.344Z,19.90
2022-09-17T22:39:08.508Z,19.90
2022-09-17T22:41:37.238Z,19.80
2022-09-17T22:44:06.855Z,19.90
2022-09-17T22:46:41.557Z,19.90
2022-09-17T22:49:10.032Z,19.80
2022-09-17T22:51:37.445Z,19.80
2022-09-17T22:54:05.095Z,19.70
2022-09-17T22:56:33.355Z,19.70
2022-09-17T22:59:00.088Z,19.70
2022-09-17T23:01:29.869Z,19.70
2022-09-17T23:03:58.156Z,19.70
2022-09-17T23:06:27.645Z,19.60
2022-09-17T23:08:55.022Z,19.60
2022-09-17T23:11:28.143Z,19.60
2022-09-17T23:14:02.129Z,19.50
2022-09-17T23:16:33.240Z,19.60
2022-09-17T23:19:00.059Z,19.50
2022-09-17T23:21:26.805Z,19.50
2022-09-17T23:23:53.555Z,19.50
2022-09-17T23:26:23.384Z,19.50
2022-09-17T23:28:51.051Z,19.50
2022-09-17T23:31:23.842Z,19.60
2022-09-17T23:33:51.628Z,19.60
2022-09-17T23:36:21.731Z,19.60
2022-09-17T23:38:49.568Z,19.60
2022-09-17T23:41:19.057Z,19.60
2022-09-17T23:43:51.643Z,19.60
2022-09-17T23:46:19.992Z,19.70
2022-09-17T23:48:47.388Z,19.60
2022-09-17T23:51:16.378Z,19.60
2022-09-17T23:53:43.526Z,19.60
2022-09-17T23:56:15.708Z,19.60
2022-09-17T23:58:42.450Z,19.60
